createdAt,value
2022-12-20T00:00:07.294Z,71.35
2022-12-20T00:01:13.446Z,75.65
2022-12-20T00:02:16.229Z,73.37
2022-12-20T00:03:20.741Z,65.53
2022-12-20T00:04:23.804Z,68.57
2022-12-20T00:05:26.497Z,56.03
2022-12-20T00:06:30.073Z,67.40
2022-12-20T00:07:33.518Z,67.90
2022-12-20T00:08:37.219Z,60.25
2022-12-20T00:09:40.389Z,61.63
2022-12-20T00:10:45.552Z,64.62
2022-12-20T00:11:51.211Z,61.75
2022-12-20T00:12:53.861Z,58.90
2022-12-20T00:13:57.245Z,62.17
2022-12-20T00:15:00.292Z,57.85
2022-12-20T00:16:15.250Z,61.55
2022-12-20T00:17:18.321Z,66.12
2022-12-20T00:18:21.400Z,60.42
2022-12-20T00:19:24.742Z,68.00
2022-12-20T00:20:28.476Z,68.25
2022-12-20T00:21:33.560Z,63.40
2022-12-20T00:22:37.941Z,79.50
2022-12-20T00:23:41.152Z,93.90
2022-12-20T00:24:43.761Z,97.20
2022-12-20T00:25:46.529Z,90.25
2022-12-20T00:26:49.353Z,96.03
2022-12-20T00:27:52.772Z,84.95
2022-12-20T00:31:02.312Z,68.20
2022-12-20T00:32:05.264Z,69.30
2022-12-20T00:35:30.553Z,62.60
2022-12-20T00:36:34.340Z,60.80
2022-12-20T00:40:00.404Z,55.67
2022-12-20T00:41:06.009Z,66.82
2022-12-20T00:44:31.404Z,55.22
2022-12-20T00:45:34.162Z,58.72
2022-12-20T00:49:03.321Z,61.47
2022-12-20T00:50:06.793Z,53.35
2022-12-20T00:53:35.288Z,58.70
2022-12-20T00:54:38.182Z,61.35
2022-12-20T00:58:07.299Z,66.45
2022-12-20T00:59:09.922Z,63.83
2022-12-20T01:00:13.243Z,65.50
2022-12-20T01:03:22.334Z,62.50
2022-12-20T01:04:25.532Z,61.17
2022-12-20T01:07:51.421Z,59.65
2022-12-20T01:08:55.233Z,64.75
2022-12-20T01:12:21.401Z,51.55
2022-12-20T01:13:24.357Z,61.28
2022-12-20T01:16:53.332Z,65.65
2022-12-20T01:17:56.153Z,58.95
2022-12-20T01:21:25.340Z,61.00
2022-12-20T01:22:28.366Z,62.35
2022-12-20T01:25:57.293Z,56.58
2022-12-20T01:27:00.255Z,64.62
2022-12-20T01:30:29.286Z,135.77
2022-12-20T01:31:32.445Z,170.87
2022-12-20T01:35:01.302Z,131.20
2022-12-20T01:36:07.116Z,102.67
2022-12-20T01:39:31.422Z,103.62
2022-12-20T01:40:34.396Z,117.45
2022-12-20T01:41:38.699Z,106.37
2022-12-20T01:44:53.093Z,101.22
2022-12-20T01:45:56.291Z,101.90
2022-12-20T01:49:18.401Z,112.20
2022-12-20T01:50:21.727Z,106.47
2022-12-20T01:53:48.402Z,67.47
2022-12-20T01:59:14.137Z,75.80
2022-12-20T02:00:18.936Z,106.63
2022-12-20T02:01:23.485Z,94.72
2022-12-20T02:04:31.988Z,69.40
2022-12-20T02:05:37.887Z,69.80
2022-12-20T02:09:01.746Z,65.15
2022-12-20T02:10:07.701Z,69.97
2022-12-20T02:13:31.406Z,66.57
2022-12-20T02:18:58.365Z,80.03
2022-12-20T02:20:04.068Z,83.03
2022-12-20T02:21:18.847Z,87.20
2022-12-20T02:29:08.676Z,65.00
2022-12-20T02:30:15.739Z,72.93
2022-12-20T02:33:28.289Z,65.62
2022-12-20T02:34:33.889Z,72.45
2022-12-20T02:37:56.379Z,60.37
2022-12-20T02:38:59.416Z,64.20
2022-12-20T02:42:28.280Z,76.53
2022-12-20T02:43:53.369Z,64.40
2022-12-20T02:45:17.241Z,79.35
2022-12-20T02:46:23.995Z,78.80
2022-12-20T02:52:00.732Z,73.32
2022-12-20T02:53:07.150Z,68.67
2022-12-20T02:56:28.426Z,69.78
2022-12-20T03:01:57.297Z,70.72
2022-12-20T03:03:22.290Z,68.95
2022-12-20T03:04:28.002Z,71.97
2022-12-20T03:07:30.220Z,72.75
2022-12-20T03:10:54.437Z,65.60
2022-12-20T03:11:57.655Z,74.65
2022-12-20T03:15:26.261Z,67.03
2022-12-20T03:16:29.981Z,70.75
2022-12-20T03:19:58.281Z,72.93
2022-12-20T03:21:01.260Z,71.50
2022-12-20T03:24:30.307Z,66.40
2022-12-20T03:25:33.154Z,68.55
2022-12-20T03:29:02.269Z,69.72
2022-12-20T03:30:06.753Z,70.07
2022-12-20T03:33:33.399Z,63.15
2022-12-20T03:34:37.181Z,63.87
2022-12-20T03:38:03.403Z,64.87
2022-12-20T03:39:06.487Z,69.67
2022-12-20T03:42:33.391Z,68.30
2022-12-20T03:43:36.470Z,67.72
2022-12-20T03:47:03.381Z,68.43
2022-12-20T03:48:07.656Z,67.85
2022-12-20T03:51:34.390Z,60.12
2022-12-20T03:52:37.975Z,70.45
2022-12-20T03:56:04.396Z,70.00
2022-12-20T03:57:08.208Z,64.28
2022-12-20T03:58:10.935Z,69.97
2022-12-20T03:59:14.561Z,67.00
2022-12-20T04:00:34.788Z,70.35
2022-12-20T04:01:39.121Z,69.72
2022-12-20T04:02:42.336Z,66.05
2022-12-20T04:05:52.220Z,65.47
2022-12-20T04:06:55.356Z,70.33
2022-12-20T04:10:21.379Z,62.83
2022-12-20T04:11:24.102Z,69.57
2022-12-20T04:14:52.268Z,72.03
2022-12-20T04:19:22.727Z,64.60
2022-12-20T04:20:25.811Z,66.97
2022-12-20T04:23:52.410Z,74.90
2022-12-20T04:24:55.180Z,68.37
2022-12-20T04:28:24.272Z,68.97
2022-12-20T04:29:27.838Z,66.97
2022-12-20T04:32:56.259Z,61.53
2022-12-20T04:34:01.037Z,66.35
2022-12-20T04:37:26.385Z,62.93
2022-12-20T04:38:29.496Z,129.50
2022-12-20T04:39:32.842Z,119.10
2022-12-20T04:42:41.727Z,73.05
2022-12-20T04:43:44.567Z,75.28
2022-12-20T04:47:11.349Z,69.80
2022-12-20T04:48:54.600Z,84.70
2022-12-20T04:52:29.798Z,79.43
2022-12-20T04:53:50.925Z,82.85
2022-12-20T04:54:56.693Z,116.30
2022-12-20T04:56:00.052Z,83.10
2022-12-20T04:57:02.861Z,113.37
2022-12-20T04:58:07.951Z,115.32
2022-12-20T04:59:12.665Z,72.28
2022-12-20T05:02:22.073Z,63.28
2022-12-20T05:03:26.395Z,73.00
2022-12-20T05:06:52.359Z,141.15
2022-12-20T05:07:55.783Z,211.93
2022-12-20T05:11:22.400Z,96.15
2022-12-20T05:12:26.413Z,68.78
2022-12-20T05:15:52.462Z,117.00
2022-12-20T05:16:56.803Z,126.72
2022-12-20T05:20:23.557Z,76.60
2022-12-20T05:21:44.850Z,105.70
2022-12-20T05:23:06.220Z,73.10
2022-12-20T05:24:28.806Z,71.05
2022-12-20T05:25:50.300Z,61.10
2022-12-20T05:26:53.184Z,64.40
2022-12-20T05:30:08.755Z,64.85
2022-12-20T05:31:12.300Z,65.70
2022-12-20T05:34:38.433Z,59.47
2022-12-20T05:35:41.891Z,67.45
2022-12-20T05:40:10.997Z,69.78
2022-12-20T05:44:41.149Z,73.00
2022-12-20T05:49:12.267Z,69.80
2022-12-20T05:53:42.522Z,63.58
2022-12-20T05:54:46.079Z,60.17
2022-12-20T05:55:51.661Z,65.43
2022-12-20T05:57:10.385Z,72.07
2022-12-20T05:58:13.785Z,65.65
2022-12-20T05:59:18.104Z,72.15
2022-12-20T06:02:16.155Z,68.43
2022-12-20T06:03:19.566Z,72.35
2022-12-20T06:07:46.923Z,78.43
2022-12-20T06:12:19.376Z,82.57
2022-12-20T06:16:47.151Z,86.40
2022-12-20T06:21:18.440Z,84.13
2022-12-20T06:22:21.472Z,83.72
2022-12-20T06:23:24.965Z,80.72
2022-12-20T06:24:48.503Z,82.82
2022-12-20T06:25:51.945Z,84.10
2022-12-20T06:26:55.358Z,77.97
2022-12-20T06:29:54.670Z,80.57
2022-12-20T06:30:58.828Z,103.30
2022-12-20T06:35:25.897Z,105.18
2022-12-20T06:39:56.034Z,99.95
2022-12-20T06:44:25.710Z,103.20
2022-12-20T06:48:58.003Z,90.78
2022-12-20T06:53:28.041Z,84.87
2022-12-20T06:54:30.859Z,77.45
2022-12-20T06:57:28.243Z,78.40
2022-12-20T06:58:33.430Z,81.50
2022-12-20T07:02:59.260Z,79.60
2022-12-20T07:07:28.681Z,76.57
2022-12-20T07:12:00.700Z,75.35
2022-12-20T07:16:32.334Z,99.35
2022-12-20T07:17:35.129Z,108.07
2022-12-20T07:18:39.366Z,146.13
2022-12-20T07:19:59.383Z,82.30
2022-12-20T07:21:04.479Z,82.47
2022-12-20T07:22:07.667Z,123.13
2022-12-20T07:25:04.419Z,128.25
2022-12-20T07:26:08.156Z,94.93
2022-12-20T07:30:34.758Z,70.75
2022-12-20T07:35:07.010Z,79.12
2022-12-20T07:39:36.782Z,79.37
2022-12-20T07:44:06.996Z,84.37
2022-12-20T07:45:10.204Z,80.35
2022-12-20T07:47:47.173Z,83.18
2022-12-20T07:48:50.422Z,75.70
2022-12-20T07:49:53.608Z,77.50
2022-12-20T07:51:02.717Z,76.95
2022-12-20T07:52:08.387Z,81.00
2022-12-20T07:53:12.034Z,90.70
2022-12-20T07:54:29.914Z,84.25
2022-12-20T07:55:33.984Z,93.12
2022-12-20T07:56:41.810Z,89.32
2022-12-20T07:57:55.068Z,84.50
2022-12-20T07:59:01.152Z,86.72
2022-12-20T08:00:04.979Z,82.93
2022-12-20T08:01:14.664Z,74.78
2022-12-20T08:02:24.468Z,72.00
2022-12-20T08:03:33.381Z,71.82
2022-12-20T08:04:36.500Z,68.10
2022-12-20T08:05:44.431Z,68.45
2022-12-20T08:06:48.361Z,71.65
2022-12-20T08:07:59.032Z,70.47
2022-12-20T08:09:05.485Z,69.00
2022-12-20T08:10:11.755Z,75.57
2022-12-20T08:11:15.315Z,79.12
2022-12-20T08:12:19.595Z,72.03
2022-12-20T08:13:22.870Z,72.95
2022-12-20T08:14:25.806Z,71.60
2022-12-20T08:15:29.212Z,76.60
2022-12-20T08:16:32.490Z,73.82
2022-12-20T08:17:35.300Z,77.60
2022-12-20T08:18:38.395Z,73.87
2022-12-20T08:19:41.570Z,68.37
2022-12-20T08:20:44.408Z,82.75
2022-12-20T08:21:47.160Z,82.93
2022-12-20T08:22:50.174Z,106.32
2022-12-20T08:23:53.386Z,133.70
2022-12-20T08:24:56.050Z,131.40
2022-12-20T08:26:01.400Z,84.83
2022-12-20T08:27:04.211Z,71.65
2022-12-20T08:28:06.911Z,74.10
2022-12-20T08:29:10.578Z,66.50
2022-12-20T08:30:14.061Z,73.65
2022-12-20T08:31:16.844Z,73.20
2022-12-20T08:32:19.771Z,105.90
2022-12-20T08:35:23.166Z,103.82
2022-12-20T08:36:26.201Z,138.45
2022-12-20T08:40:53.643Z,67.22
2022-12-20T08:41:56.643Z,63.90
2022-12-20T08:44:52.970Z,61.95
2022-12-20T08:45:55.970Z,68.47
2022-12-20T08:50:23.709Z,79.53
2022-12-20T08:54:55.536Z,67.95
2022-12-20T08:59:27.571Z,61.72
2022-12-20T09:03:59.593Z,117.00
2022-12-20T09:08:29.671Z,98.18
2022-12-20T09:09:32.461Z,117.87
2022-12-20T09:12:29.208Z,63.28
2022-12-20T09:13:34.410Z,61.88
2022-12-20T09:14:53.590Z,53.35
2022-12-20T09:15:56.855Z,65.75
2022-12-20T09:16:59.645Z,64.72
2022-12-20T09:18:02.499Z,65.75
2022-12-20T09:19:06.637Z,60.83
2022-12-20T09:20:09.885Z,62.95
2022-12-20T09:21:13.531Z,66.82
2022-12-20T09:22:16.216Z,71.70
2022-12-20T09:23:18.932Z,77.15
2022-12-20T09:24:21.928Z,74.12
2022-12-20T09:25:24.707Z,61.13
2022-12-20T09:26:27.931Z,64.22
2022-12-20T09:27:31.033Z,78.05
2022-12-20T09:28:34.743Z,99.35
2022-12-20T09:29:37.687Z,64.37
2022-12-20T09:30:40.380Z,86.80
2022-12-20T09:35:09.836Z,56.47
2022-12-20T09:39:41.764Z,67.87
2022-12-20T09:48:38.453Z,60.20
2022-12-20T09:49:45.931Z,50.67
2022-12-20T09:53:25.290Z,57.78
2022-12-20T09:54:51.165Z,59.63
2022-12-20T09:56:00.831Z,56.00
2022-12-20T10:03:10.472Z,54.47
2022-12-20T10:08:46.548Z,54.03
2022-12-20T10:10:26.242Z,56.30
2022-12-20T10:12:07.040Z,59.03
2022-12-20T10:18:00.135Z,55.30
2022-12-20T10:21:02.458Z,53.40
2022-12-20T10:22:05.102Z,49.17
2022-12-20T10:25:32.506Z,53.28
2022-12-20T10:26:35.899Z,50.72
2022-12-20T10:27:43.083Z,51.15
2022-12-20T10:30:39.966Z,49.58
2022-12-20T10:31:43.448Z,51.83
2022-12-20T10:41:18.484Z,44.92
2022-12-20T10:42:03.745Z,47.55
2022-12-20T10:45:21.908Z,50.40
2022-12-20T10:46:36.160Z,42.62
2022-12-20T10:47:43.395Z,47.35
2022-12-20T10:50:35.097Z,46.70
2022-12-20T10:59:36.882Z,133.45
2022-12-20T11:00:40.334Z,46.65
2022-12-20T11:03:59.349Z,48.15
2022-12-20T11:05:11.051Z,47.50
2022-12-20T11:06:18.108Z,46.55
2022-12-20T11:09:34.415Z,42.85
2022-12-20T11:10:37.344Z,42.15
2022-12-20T11:13:58.208Z,43.33
2022-12-20T11:23:41.977Z,43.20
2022-12-20T11:25:06.097Z,44.13
2022-12-20T11:26:31.263Z,40.67
2022-12-20T11:27:40.594Z,40.40
2022-12-20T11:33:31.602Z,39.13
2022-12-20T11:38:58.972Z,42.47
2022-12-20T11:40:17.408Z,43.65
2022-12-20T11:44:15.864Z,43.28
2022-12-20T11:47:43.153Z,54.72
2022-12-20T11:49:04.719Z,57.20
2022-12-20T11:52:37.350Z,47.72
2022-12-20T12:02:25.161Z,38.42
2022-12-20T12:03:34.712Z,39.72
2022-12-20T12:07:17.721Z,38.72
2022-12-20T12:12:35.914Z,42.53
2022-12-20T12:13:40.804Z,41.03
2022-12-20T12:16:54.648Z,38.45
2022-12-20T12:22:03.380Z,36.53
2022-12-20T12:26:55.490Z,39.25
2022-12-20T12:30:21.361Z,39.37
2022-12-20T12:36:02.299Z,56.33
2022-12-20T12:37:26.293Z,88.35
2022-12-20T12:38:44.206Z,153.32
2022-12-20T12:40:25.127Z,142.98
2022-12-20T12:41:55.638Z,73.87
2022-12-20T12:43:40.492Z,93.87
2022-12-20T12:44:57.596Z,98.05
2022-12-20T12:46:03.006Z,50.77
2022-12-20T12:47:19.814Z,46.47
2022-12-20T12:48:23.819Z,60.15
2022-12-20T12:49:30.309Z,58.90
2022-12-20T12:50:42.287Z,49.67
2022-12-20T12:51:52.183Z,47.15
2022-12-20T12:52:59.152Z,44.50
2022-12-20T12:54:10.275Z,44.83
2022-12-20T12:55:34.819Z,50.90
2022-12-20T12:56:51.060Z,47.42
2022-12-20T12:59:34.848Z,47.60
2022-12-20T13:03:03.357Z,41.75
2022-12-20T13:06:50.649Z,42.65
2022-12-20T13:07:55.063Z,44.53
2022-12-20T13:09:03.991Z,51.58
2022-12-20T13:12:34.632Z,50.30
2022-12-20T13:13:37.636Z,54.10
2022-12-20T13:14:40.323Z,51.67
2022-12-20T13:17:52.315Z,53.78
2022-12-20T13:21:28.704Z,147.77
2022-12-20T13:22:31.737Z,107.45
2022-12-20T13:25:51.933Z,81.78
2022-12-20T13:26:55.572Z,133.95
2022-12-20T13:30:18.925Z,67.12
2022-12-20T13:31:21.579Z,67.95
2022-12-20T13:34:50.205Z,67.05
2022-12-20T13:40:05.528Z,60.53
2022-12-20T13:41:29.578Z,59.70
2022-12-20T13:42:42.573Z,62.13
2022-12-20T13:45:36.264Z,66.60
2022-12-20T13:49:09.426Z,118.40
2022-12-20T13:54:43.648Z,161.40
2022-12-20T13:55:47.005Z,114.97
2022-12-20T13:59:20.039Z,75.97
2022-12-20T14:00:25.698Z,220.53
2022-12-20T14:03:45.774Z,85.65
2022-12-20T14:08:59.081Z,79.35
2022-12-20T14:10:04.117Z,103.68
2022-12-20T14:13:02.115Z,104.47
2022-12-20T14:14:05.255Z,122.25
2022-12-20T14:15:31.656Z,169.27
2022-12-20T14:16:34.427Z,143.25
2022-12-20T14:17:42.860Z,111.80
2022-12-20T14:18:50.167Z,85.07
2022-12-20T14:20:09.358Z,88.62
2022-12-20T14:21:12.611Z,92.60
2022-12-20T14:22:15.377Z,97.37
2022-12-20T14:23:23.681Z,96.90
2022-12-20T14:24:26.680Z,88.40
2022-12-20T14:25:54.600Z,87.65
2022-12-20T14:26:57.737Z,118.77
2022-12-20T14:28:00.987Z,122.90
2022-12-20T14:29:11.593Z,129.77
2022-12-20T14:30:32.021Z,130.82
2022-12-20T14:31:41.246Z,85.72
2022-12-20T14:32:49.823Z,65.47
2022-12-20T14:34:27.443Z,68.28
2022-12-20T14:35:32.154Z,63.35
2022-12-20T14:36:36.211Z,57.88
2022-12-20T14:37:41.336Z,66.53
2022-12-20T14:38:50.309Z,64.97
2022-12-20T14:40:04.975Z,67.27
2022-12-20T14:41:33.445Z,70.37
2022-12-20T14:42:38.955Z,68.18
2022-12-20T14:43:41.686Z,74.78
2022-12-20T14:44:45.233Z,71.75
2022-12-20T14:45:50.114Z,91.57
2022-12-20T14:46:59.015Z,100.10
2022-12-20T14:48:07.743Z,87.30
2022-12-20T14:49:24.922Z,117.32
2022-12-20T14:50:37.888Z,125.87
2022-12-20T14:51:44.566Z,148.67
2022-12-20T14:52:48.089Z,136.32
2022-12-20T14:53:51.953Z,141.52
2022-12-20T14:55:10.024Z,137.82
2022-12-20T14:56:31.901Z,168.13
2022-12-20T14:57:36.264Z,182.02
2022-12-20T14:58:42.873Z,255.82
2022-12-20T15:00:16.875Z,239.27
2022-12-20T15:01:31.490Z,159.85
2022-12-20T15:02:47.319Z,252.87
2022-12-20T15:03:56.824Z,224.80
2022-12-20T15:05:01.472Z,201.48
2022-12-20T15:06:05.980Z,171.20
2022-12-20T15:07:32.546Z,106.35
2022-12-20T15:08:38.133Z,78.70
2022-12-20T15:09:44.312Z,86.72
2022-12-20T15:10:52.324Z,81.57
2022-12-20T15:11:58.468Z,85.12
2022-12-20T15:13:02.457Z,112.20
2022-12-20T15:14:39.426Z,131.80
2022-12-20T15:15:43.385Z,148.07
2022-12-20T15:16:51.070Z,105.47
2022-12-20T15:18:14.195Z,90.25
2022-12-20T15:21:35.591Z,78.18
2022-12-20T15:22:39.841Z,80.95
2022-12-20T15:23:53.275Z,91.70
2022-12-20T15:24:57.746Z,89.78
2022-12-20T15:26:00.816Z,105.80
2022-12-20T15:27:03.695Z,89.50
2022-12-20T15:28:21.664Z,80.47
2022-12-20T15:29:26.629Z,97.43
2022-12-20T15:30:30.351Z,93.28
2022-12-20T15:31:37.101Z,91.53
2022-12-20T15:32:54.513Z,82.00
2022-12-20T15:33:58.775Z,74.57
2022-12-20T15:35:03.513Z,81.12
2022-12-20T15:36:07.628Z,79.10
2022-12-20T15:37:18.424Z,72.65
2022-12-20T15:38:40.632Z,69.07
2022-12-20T15:39:47.316Z,88.85
2022-12-20T15:43:16.190Z,139.65
2022-12-20T15:44:27.826Z,102.87
2022-12-20T15:45:30.598Z,90.32
2022-12-20T15:46:33.677Z,87.68
2022-12-20T15:47:46.443Z,80.30
2022-12-20T15:48:49.606Z,75.43
2022-12-20T15:49:52.691Z,78.47
2022-12-20T15:53:00.695Z,76.72
2022-12-20T15:54:07.988Z,73.05
2022-12-20T15:57:30.955Z,65.97
2022-12-20T15:58:33.715Z,90.25
2022-12-20T16:02:02.315Z,105.82
2022-12-20T16:03:05.588Z,113.03
2022-12-20T16:06:34.192Z,106.77
2022-12-20T16:07:36.961Z,86.50
2022-12-20T16:10:51.666Z,83.07
2022-12-20T16:11:54.406Z,80.85
2022-12-20T16:12:57.170Z,94.07
2022-12-20T16:14:00.602Z,98.55
2022-12-20T16:15:03.965Z,81.47
2022-12-20T16:16:07.018Z,89.40
2022-12-20T16:17:14.223Z,95.78
2022-12-20T16:18:17.179Z,96.97
2022-12-20T16:19:20.672Z,119.65
2022-12-20T16:20:23.635Z,121.47
2022-12-20T16:21:30.855Z,171.65
2022-12-20T16:22:33.538Z,251.60
2022-12-20T16:23:36.260Z,196.82
2022-12-20T16:24:39.526Z,161.27
2022-12-20T16:25:42.418Z,107.65
2022-12-20T16:26:46.320Z,98.72
2022-12-20T16:27:49.393Z,95.65
2022-12-20T16:28:54.926Z,78.57
2022-12-20T16:32:20.287Z,97.90
2022-12-20T16:33:23.016Z,138.80
2022-12-20T16:34:25.953Z,148.45
2022-12-20T16:37:38.979Z,244.43
2022-12-20T16:38:42.089Z,509.48
2022-12-20T16:42:04.271Z,220.18
2022-12-20T16:46:55.100Z,98.43
2022-12-20T16:47:58.941Z,105.70
2022-12-20T16:51:24.719Z,92.22
2022-12-20T16:52:27.510Z,78.07
2022-12-20T16:55:53.285Z,107.10
2022-12-20T16:56:57.016Z,98.65
2022-12-20T17:00:23.416Z,164.65
2022-12-20T17:01:33.414Z,111.88
2022-12-20T17:04:55.064Z,106.85
2022-12-20T17:05:58.060Z,106.25
2022-12-20T17:10:44.630Z,114.35
2022-12-20T17:13:56.319Z,121.00
2022-12-20T17:14:59.073Z,118.40
2022-12-20T17:18:25.344Z,91.00
2022-12-20T17:19:28.625Z,83.70
2022-12-20T17:22:57.185Z,87.97
2022-12-20T17:24:00.774Z,101.60
2022-12-20T17:27:27.263Z,163.07
2022-12-20T17:28:30.143Z,89.60
2022-12-20T17:29:33.150Z,84.03
2022-12-20T17:32:41.642Z,118.07
2022-12-20T17:33:44.377Z,111.40
2022-12-20T17:37:13.178Z,103.55
2022-12-20T17:38:16.543Z,111.25
2022-12-20T17:41:45.181Z,88.95
2022-12-20T17:42:47.947Z,93.20
2022-12-20T17:46:17.314Z,71.65
2022-12-20T17:47:20.140Z,71.62
2022-12-20T17:51:51.695Z,77.60
2022-12-20T17:56:24.893Z,131.10
2022-12-20T18:00:52.851Z,85.60
2022-12-20T18:01:56.794Z,80.05
2022-12-20T18:03:00.218Z,83.57
2022-12-20T18:07:28.635Z,107.40
2022-12-20T18:10:18.258Z,99.15
2022-12-20T18:11:23.469Z,106.97
2022-12-20T18:12:26.200Z,102.80
2022-12-20T18:13:29.408Z,103.15
2022-12-20T18:14:32.143Z,99.28
2022-12-20T18:15:34.775Z,84.80
2022-12-20T18:16:41.315Z,83.40
2022-12-20T18:17:44.586Z,79.87
2022-12-20T18:18:49.006Z,89.70
2022-12-20T18:19:55.831Z,89.13
2022-12-20T18:21:07.938Z,78.35
2022-12-20T18:22:13.971Z,88.10
2022-12-20T18:23:17.005Z,71.70
2022-12-20T18:24:21.564Z,85.95
2022-12-20T18:25:24.331Z,79.12
2022-12-20T18:26:33.830Z,74.18
2022-12-20T18:27:39.650Z,92.57
2022-12-20T18:28:45.275Z,108.55
2022-12-20T18:29:48.578Z,111.57
2022-12-20T18:30:51.950Z,92.60
2022-12-20T18:31:55.079Z,108.22
2022-12-20T18:32:57.885Z,87.63
2022-12-20T18:34:01.655Z,85.75
2022-12-20T18:35:07.265Z,77.57
2022-12-20T18:36:13.882Z,82.10
2022-12-20T18:37:18.667Z,72.68
2022-12-20T18:38:23.495Z,96.45
2022-12-20T18:39:27.221Z,102.47
2022-12-20T18:40:30.892Z,103.82
2022-12-20T18:41:35.232Z,108.93
2022-12-20T18:42:38.756Z,131.25
2022-12-20T18:43:44.110Z,106.80
2022-12-20T18:44:50.348Z,86.90
2022-12-20T18:45:54.201Z,82.82
2022-12-20T18:46:58.083Z,85.03
2022-12-20T18:48:01.296Z,79.62
2022-12-20T18:49:04.652Z,74.25
2022-12-20T18:50:09.145Z,72.47
2022-12-20T18:51:17.978Z,66.62
2022-12-20T18:52:20.807Z,73.20
2022-12-20T18:53:23.710Z,72.40
2022-12-20T18:54:26.858Z,68.13
2022-12-20T18:55:30.036Z,68.55
2022-12-20T18:56:37.324Z,71.07
2022-12-20T18:57:40.409Z,82.37
2022-12-20T19:02:13.088Z,75.75
2022-12-20T19:03:17.385Z,74.15
2022-12-20T19:04:24.573Z,77.25
2022-12-20T19:05:41.672Z,70.43
2022-12-20T19:06:45.004Z,73.50
2022-12-20T19:07:48.917Z,91.18
2022-12-20T19:10:46.385Z,79.65
2022-12-20T19:11:56.211Z,84.22
2022-12-20T19:15:15.917Z,85.15
2022-12-20T19:16:25.079Z,96.15
2022-12-20T19:19:45.528Z,73.90
2022-12-20T19:20:49.725Z,63.57
2022-12-20T19:25:17.826Z,80.00
2022-12-20T19:29:49.505Z,72.37
2022-12-20T19:30:56.565Z,63.35
2022-12-20T19:33:57.420Z,69.28
2022-12-20T19:35:16.607Z,75.20
2022-12-20T19:38:30.640Z,82.57
2022-12-20T19:39:34.827Z,72.43
2022-12-20T19:44:01.285Z,63.58
2022-12-20T19:48:37.824Z,75.75
2022-12-20T19:53:04.010Z,65.53
2022-12-20T19:57:48.337Z,65.12
2022-12-20T20:01:02.435Z,61.10
2022-12-20T20:02:06.864Z,62.03
2022-12-20T20:06:34.605Z,59.72
2022-12-20T20:07:38.613Z,63.22
2022-12-20T20:10:35.891Z,58.95
2022-12-20T20:11:38.879Z,63.87
2022-12-20T20:16:08.035Z,61.90
2022-12-20T20:20:40.827Z,67.90
2022-12-20T20:25:07.198Z,62.40
2022-12-20T20:29:37.921Z,63.38
2022-12-20T20:34:10.096Z,57.00
2022-12-20T20:35:13.510Z,65.30
2022-12-20T20:38:11.481Z,64.97
2022-12-20T20:39:15.554Z,51.03
2022-12-20T20:43:41.780Z,62.28
2022-12-20T20:48:11.116Z,56.40
2022-12-20T20:52:56.867Z,53.78
2022-12-20T20:56:10.292Z,57.90
2022-12-20T20:57:13.416Z,61.28
2022-12-20T20:58:17.365Z,58.03
2022-12-20T21:01:15.307Z,65.30
2022-12-20T21:02:21.103Z,62.90
2022-12-20T21:06:46.581Z,69.72
2022-12-20T21:11:16.742Z,65.47
2022-12-20T21:15:48.410Z,65.60
2022-12-20T21:20:25.429Z,68.43
2022-12-20T21:21:29.020Z,73.05
2022-12-20T21:22:31.817Z,69.37
2022-12-20T21:23:48.270Z,78.45
2022-12-20T21:24:51.033Z,86.50
2022-12-20T21:29:21.985Z,69.45
2022-12-20T21:30:25.454Z,75.97
2022-12-20T21:33:21.043Z,68.97
2022-12-20T21:34:23.688Z,64.90
2022-12-20T21:38:57.297Z,67.80
2022-12-20T21:43:25.576Z,70.15
2022-12-20T21:48:02.763Z,106.25
2022-12-20T21:51:26.318Z,189.95
2022-12-20T21:52:30.161Z,77.78
2022-12-20T21:53:33.272Z,60.85
2022-12-20T21:56:31.412Z,62.38
2022-12-20T21:57:35.135Z,67.55
2022-12-20T22:02:00.080Z,61.28
2022-12-20T22:06:31.646Z,56.03
2022-12-20T22:11:04.135Z,90.07
2022-12-20T22:14:00.522Z,63.07
2022-12-20T22:15:03.910Z,70.65
2022-12-20T22:16:08.791Z,71.00
2022-12-20T22:17:11.626Z,67.68
2022-12-20T22:18:15.845Z,65.82
2022-12-20T22:19:18.684Z,72.97
2022-12-20T22:20:21.807Z,66.05
2022-12-20T22:21:27.954Z,69.20
2022-12-20T22:22:30.984Z,69.78
2022-12-20T22:23:33.840Z,66.40
2022-12-20T22:24:37.332Z,76.57
2022-12-20T22:25:40.947Z,74.37
2022-12-20T22:26:44.065Z,71.82
2022-12-20T22:27:46.784Z,75.78
2022-12-20T22:28:53.775Z,74.75
2022-12-20T22:29:56.428Z,68.82
2022-12-20T22:30:59.612Z,74.22
2022-12-20T22:32:02.397Z,64.50
2022-12-20T22:33:05.180Z,67.47
2022-12-20T22:34:08.274Z,69.60
2022-12-20T22:35:11.106Z,66.50
2022-12-20T22:36:16.159Z,66.00
2022-12-20T22:37:19.336Z,75.20
2022-12-20T22:38:23.904Z,81.60
2022-12-20T22:39:26.750Z,79.70
2022-12-20T22:40:29.882Z,72.43
2022-12-20T22:41:34.970Z,67.72
2022-12-20T22:42:41.419Z,77.25
2022-12-20T22:43:45.787Z,70.50
2022-12-20T22:44:48.802Z,75.25
2022-12-20T22:48:41.086Z,65.68
2022-12-20T22:49:43.880Z,67.00
2022-12-20T22:50:46.615Z,60.08
2022-12-20T22:51:59.342Z,70.03
2022-12-20T22:53:09.596Z,68.87
2022-12-20T22:54:12.986Z,62.33
2022-12-20T22:55:15.954Z,63.47
2022-12-20T22:56:21.150Z,63.28
2022-12-20T22:57:24.079Z,66.37
2022-12-20T22:58:28.079Z,62.13
2022-12-20T22:59:31.162Z,62.42
2022-12-20T23:00:34.016Z,59.00
2022-12-20T23:01:36.785Z,63.35
2022-12-20T23:02:41.620Z,67.22
2022-12-20T23:03:45.083Z,66.62
2022-12-20T23:04:48.010Z,61.70
2022-12-20T23:05:52.719Z,69.90
2022-12-20T23:06:55.592Z,64.40
2022-12-20T23:07:58.797Z,62.47
2022-12-20T23:09:02.068Z,68.62
2022-12-20T23:10:25.527Z,68.93
2022-12-20T23:11:48.209Z,66.60
2022-12-20T23:13:09.860Z,61.08
2022-12-20T23:14:39.870Z,58.20
2022-12-20T23:15:42.675Z,61.95
2022-12-20T23:16:45.923Z,58.03
2022-12-20T23:17:48.729Z,63.40
2022-12-20T23:18:59.924Z,61.37
2022-12-20T23:20:21.781Z,53.17
2022-12-20T23:21:43.756Z,54.72
2022-12-20T23:22:46.441Z,58.22
2022-12-20T23:23:55.607Z,58.72
2022-12-20T23:24:58.654Z,59.10
2022-12-20T23:26:16.148Z,59.33
2022-12-20T23:27:19.178Z,68.28
2022-12-20T23:28:22.352Z,61.55
2022-12-20T23:29:25.752Z,61.28
2022-12-20T23:30:28.541Z,63.00
2022-12-20T23:31:32.662Z,62.47
2022-12-20T23:32:36.218Z,62.70
2022-12-20T23:33:39.476Z,62.80
2022-12-20T23:34:42.116Z,61.25
2022-12-20T23:35:45.120Z,62.25
2022-12-20T23:36:48.193Z,59.20
2022-12-20T23:37:51.254Z,59.50
2022-12-20T23:38:56.982Z,64.55
2022-12-20T23:39:59.677Z,63.67
2022-12-20T23:41:10.631Z,60.78
2022-12-20T23:42:13.929Z,58.07
2022-12-20T23:43:17.049Z,57.88
2022-12-20T23:44:19.954Z,56.08
2022-12-20T23:45:22.643Z,61.97
2022-12-20T23:46:26.252Z,59.20
2022-12-20T23:47:29.461Z,54.63
2022-12-20T23:48:32.972Z,58.42
2022-12-20T23:49:36.218Z,59.38
2022-12-20T23:50:38.917Z,59.13
2022-12-20T23:51:42.730Z,55.90
2022-12-20T23:52:45.890Z,59.07
2022-12-20T23:53:51.005Z,59.47
2022-12-20T23:54:53.986Z,56.55
2022-12-20T23:56:08.808Z,57.70
2022-12-20T23:57:12.430Z,62.53
2022-12-20T23:58:15.783Z,65.97
2022-12-20T23:59:18.620Z,55.15
